Time;durP1;ratioP1;P1;durP2;ratioP2;P2;SDS_P1;SDS_P2;PMS_P1;PMS_P2;Temp;Humidity;BMP_temperature;BMP_pressure;BME280_temperature;BME280_humidity;BME280_pressure;Samples;Min_cycle;Max_cycle;Signal;HPM_P1;HPM_P2
2023/01/04 00:02:03;;;;;;;9.63;1.58;;;;;;;11.91;100.00;100621.16;5018073;28;20060;-51
2023/01/04 00:04:29;;;;;;;10.25;1.83;;;;;;;11.95;100.00;100624.22;5017845;28;20115;-57
2023/01/04 00:06:55;;;;;;;15.65;2.30;;;;;;;11.94;100.00;100617.28;5011891;28;20025;-55
2023/01/04 00:09:21;;;;;;;9.73;1.90;;;;;;;11.92;100.00;100612.16;5021154;28;20570;-52
2023/01/04 00:11:46;;;;;;;6.85;0.68;;;;;;;11.84;100.00;100609.63;5019981;28;20176;-55
2023/01/04 00:14:11;;;;;;;6.35;1.45;;;;;;;11.92;100.00;100619.31;5015111;28;20390;-53
2023/01/04 00:16:37;;;;;;;3.40;0.68;;;;;;;11.90;100.00;100618.66;5017756;28;20029;-54
2023/01/04 00:19:02;;;;;;;7.25;1.17;;;;;;;11.85;100.00;100621.91;5019943;28;20026;-58
2023/01/04 00:21:29;;;;;;;6.43;1.92;;;;;;;11.94;100.00;100610.13;5022375;28;20030;-50
2023/01/04 00:23:57;;;;;;;8.15;2.13;;;;;;;12.03;100.00;100594.84;5015624;28;20025;-54
2023/01/04 00:26:29;;;;;;;4.05;0.75;;;;;;;12.36;100.00;100600.28;5018441;28;20112;-55
2023/01/04 00:28:59;;;;;;;7.15;1.70;;;;;;;11.94;100.00;100596.84;5018533;28;20017;-54
2023/01/04 00:31:25;;;;;;;10.05;0.60;;;;;;;12.17;100.00;100590.41;5016246;28;20026;-54
2023/01/04 00:33:58;;;;;;;10.68;0.73;;;;;;;12.08;100.00;100588.91;5013359;28;20033;-58
2023/01/04 00:36:23;;;;;;;6.90;0.70;;;;;;;11.67;100.00;100582.56;5016325;28;20045;-55
2023/01/04 00:39:05;;;;;;;7.43;1.60;;;;;;;11.70;100.00;100590.16;5023022;28;20036;-58
2023/01/04 00:41:33;;;;;;;7.70;1.45;;;;;;;11.74;100.00;100595.88;5016380;28;20458;-52
2023/01/04 00:44:02;;;;;;;4.97;0.50;;;;;;;11.89;100.00;100596.59;5018669;28;20832;-51
2023/01/04 00:46:27;;;;;;;7.68;1.05;;;;;;;12.01;100.00;100599.53;5019606;28;20061;-52
2023/01/04 00:48:53;;;;;;;2.30;0.50;;;;;;;12.00;100.00;100582.78;5017228;28;20053;-54
2023/01/04 00:51:18;;;;;;;9.63;1.70;;;;;;;11.92;100.00;100582.91;5016356;28;20046;-53
2023/01/04 00:53:43;;;;;;;6.90;1.00;;;;;;;11.97;100.00;100579.69;5011491;28;20025;-52
2023/01/04 00:56:09;;;;;;;6.57;0.80;;;;;;;11.83;100.00;100580.63;5014886;28;20034;-52
2023/01/04 00:58:34;;;;;;;11.82;2.00;;;;;;;11.95;100.00;100569.25;5018196;28;20025;-51
2023/01/04 01:01:04;;;;;;;8.27;1.33;;;;;;;11.96;100.00;100567.41;5011502;28;20030;-51
2023/01/04 01:03:30;;;;;;;6.80;1.13;;;;;;;11.80;100.00;100565.88;5015602;28;20025;-51
2023/01/04 01:06:00;;;;;;;11.52;1.75;;;;;;;11.82;100.00;100571.00;5012235;28;20076;-51
2023/01/04 01:08:26;;;;;;;11.70;1.15;;;;;;;11.85;100.00;100583.88;5017106;28;20037;-55
2023/01/04 01:10:53;;;;;;;8.30;0.90;;;;;;;11.86;100.00;100578.41;5019758;28;20073;-52
2023/01/04 01:13:19;;;;;;;3.28;0.45;;;;;;;12.02;100.00;100577.25;5014812;28;20049;-54
2023/01/04 01:15:45;;;;;;;10.93;1.17;;;;;;;12.15;100.00;100568.50;5012892;28;20087;-54
2023/01/04 01:18:10;;;;;;;2.47;0.32;;;;;;;12.00;100.00;100566.84;5016652;28;20300;-57
2023/01/04 01:20:42;;;;;;;4.68;1.98;;;;;;;12.08;100.00;100572.97;5015048;28;20676;-52
2023/01/04 01:23:08;;;;;;;3.03;0.57;;;;;;;11.81;100.00;100587.97;5020443;28;20087;-53
2023/01/04 01:25:33;;;;;;;7.32;1.60;;;;;;;11.75;100.00;100581.59;5014672;28;20402;-62
2023/01/04 01:27:59;;;;;;;12.23;1.52;;;;;;;11.58;100.00;100591.69;5015935;28;20030;-51
2023/01/04 01:30:24;;;;;;;8.30;1.88;;;;;;;11.85;100.00;100594.50;5016926;28;20034;-53
2023/01/04 01:32:49;;;;;;;6.47;0.77;;;;;;;11.39;100.00;100601.19;5019852;28;20029;-56
2023/01/04 01:35:14;;;;;;;3.28;0.35;;;;;;;11.78;100.00;100605.09;5014384;28;20438;-52
2023/01/04 01:37:40;;;;;;;7.47;1.05;;;;;;;11.84;100.00;100596.34;5017654;28;20480;-54
2023/01/04 01:40:06;;;;;;;8.77;1.60;;;;;;;11.62;100.00;100600.13;5018013;28;20455;-51
2023/01/04 01:42:31;;;;;;;11.90;0.93;;;;;;;11.87;100.00;100603.13;5015590;28;20032;-57
2023/01/04 01:44:59;;;;;;;4.60;0.47;;;;;;;11.90;100.00;100592.09;5015761;28;20048;-56
2023/01/04 01:47:45;;;;;;;8.25;1.17;;;;;;;11.72;100.00;100595.25;5027732;28;20104;-57
2023/01/04 01:50:38;;;;;;;7.70;1.33;;;;;;;11.55;100.00;100595.56;5026759;28;20128;-49
2023/01/04 01:53:06;;;;;;;7.65;0.70;;;;;;;11.35;100.00;100600.72;5020773;28;20383;-61
2023/01/04 01:55:33;;;;;;;8.32;1.60;;;;;;;11.60;100.00;100602.13;5025977;28;20033;-49
2023/01/04 01:57:59;;;;;;;9.50;0.90;;;;;;;11.81;100.00;100598.56;5020460;28;20034;-54
2023/01/04 02:00:26;;;;;;;15.15;2.80;;;;;;;11.81;100.00;100596.75;5023402;28;20467;-50
2023/01/04 02:03:02;;;;;;;9.02;1.02;;;;;;;11.85;100.00;100603.31;5023322;28;20088;-49
2023/01/04 02:05:28;;;;;;;9.15;1.48;;;;;;;11.86;100.00;100604.97;5023634;28;20079;-52
2023/01/04 02:07:54;;;;;;;12.55;2.35;;;;;;;11.97;100.00;100596.44;5026892;28;20025;-49
2023/01/04 02:10:20;;;;;;;6.28;2.05;;;;;;;11.86;100.00;100597.00;5023976;28;20096;-52
2023/01/04 02:12:46;;;;;;;19.92;3.65;;;;;;;11.74;100.00;100599.34;5019700;28;20539;-52
2023/01/04 02:15:11;;;;;;;7.95;1.00;;;;;;;11.63;100.00;100602.56;5025180;28;20120;-55
2023/01/04 02:17:53;;;;;;;11.32;0.90;;;;;;;11.56;100.00;100604.34;5026969;28;20052;-61
2023/01/04 02:20:37;;;;;;;9.52;1.13;;;;;;;11.72;100.00;100600.56;5026410;28;20406;-51
2023/01/04 02:23:26;;;;;;;19.70;2.85;;;;;;;11.74;100.00;100595.88;5019078;28;20042;-59
2023/01/04 02:26:07;;;;;;;12.32;2.05;;;;;;;11.60;100.00;100584.38;5025868;28;20032;-57
2023/01/04 02:29:00;;;;;;;9.02;1.65;;;;;;;11.70;100.00;100565.44;5022088;28;20041;-49
2023/01/04 02:31:38;;;;;;;21.83;3.00;;;;;;;11.66;100.00;100564.97;5017427;28;20053;-52
2023/01/04 02:34:09;;;;;;;7.85;1.70;;;;;;;11.55;100.00;100555.72;5015116;28;20758;-53
2023/01/04 02:36:51;;;;;;;6.77;2.07;;;;;;;11.61;100.00;100550.66;5018430;28;20060;-53
2023/01/04 02:39:29;;;;;;;14.00;3.00;;;;;;;11.58;100.00;100551.88;5021182;28;20034;-55
2023/01/04 02:42:09;;;;;;;17.15;2.60;;;;;;;11.65;100.00;100543.94;5022078;28;20076;-49
2023/01/04 02:44:54;;;;;;;7.93;1.58;;;;;;;11.78;100.00;100554.63;5027043;28;20076;-52
2023/01/04 02:50:31;;;;;;;15.27;3.47;;;;;;;11.77;100.00;100539.69;5023693;28;20076;-52
2023/01/04 02:53:01;;;;;;;15.65;3.03;;;;;;;11.82;100.00;100528.47;5028301;28;20037;-50
2023/01/04 02:55:46;;;;;;;9.88;2.42;;;;;;;11.89;100.00;100524.88;5030832;28;20052;-50
2023/01/04 02:58:26;;;;;;;9.45;1.60;;;;;;;11.94;100.00;100541.03;5023326;28;20383;-54
2023/01/04 03:08:02;;;;;;;12.02;0.70;;;;;;;11.81;100.00;100535.63;5022657;28;20387;-52
2023/01/04 03:10:52;;;;;;;10.50;2.67;;;;;;;11.94;100.00;100529.59;5018552;28;20124;-56
2023/01/04 03:13:27;;;;;;;12.43;2.08;;;;;;;12.04;100.00;100527.38;5017868;28;20032;-53
2023/01/04 03:16:06;;;;;;;6.93;1.60;;;;;;;11.64;100.00;100527.19;5030353;28;20029;-52
2023/01/04 03:18:40;;;;;;;4.47;0.68;;;;;;;11.94;100.00;100522.44;5021457;28;20028;-59
2023/01/04 03:21:08;;;;;;;4.97;2.05;;;;;;;11.88;100.00;100517.94;5026280;28;20086;-56
2023/01/04 03:35:26;;;;;;;5.57;0.60;;;;;;;11.76;100.00;100516.81;5029036;28;20064;-51
2023/01/04 03:49:48;;;;;;;18.63;2.83;;;;;;;11.81;100.00;100518.88;5034933;28;20299;-56
2023/01/04 03:52:15;;;;;;;7.05;2.10;;;;;;;11.72;100.00;100518.22;5032116;28;20087;-51
2023/01/04 03:54:45;;;;;;;4.78;0.70;;;;;;;11.81;100.00;100517.03;5033236;28;20053;-55
2023/01/04 03:57:11;;;;;;;10.73;2.15;;;;;;;12.02;100.00;100520.63;5026111;28;20086;-52
2023/01/04 03:59:50;;;;;;;1.30;0.25;;;;;;;11.98;100.00;100513.06;5030588;28;20040;-51
2023/01/04 04:02:22;;;;;;;5.60;0.95;;;;;;;11.94;100.00;100514.47;5028534;28;20075;-53
2023/01/04 04:10:15;;;;;;;2.45;0.85;;;;;;;12.06;100.00;100508.59;5034249;28;20140;-57
2023/01/04 04:12:40;;;;;;;4.25;0.77;;;;;;;12.00;100.00;100508.38;5034344;28;20052;-57
2023/01/04 04:15:06;;;;;;;4.78;0.40;;;;;;;11.89;100.00;100514.25;5032594;28;20029;-55
2023/01/04 04:17:32;;;;;;;4.07;0.90;;;;;;;11.86;100.00;100514.63;5030088;28;20029;-55
2023/01/04 04:19:57;;;;;;;2.17;0.68;;;;;;;11.83;100.00;100515.00;5032808;28;20025;-59
2023/01/04 04:22:22;;;;;;;9.32;0.77;;;;;;;11.89;100.00;100522.22;5031706;28;20086;-59
2023/01/04 04:24:48;;;;;;;3.17;0.65;;;;;;;11.95;100.00;100520.59;5025561;28;20450;-54
2023/01/04 04:27:13;;;;;;;3.17;0.20;;;;;;;12.09;100.00;100516.97;5020608;28;20463;-58
2023/01/04 04:29:38;;;;;;;4.60;1.20;;;;;;;12.11;100.00;100524.75;5029896;28;20055;-54
2023/01/04 04:32:04;;;;;;;2.30;0.20;;;;;;;11.96;100.00;100516.94;5025509;28;20030;-55
2023/01/04 04:34:29;;;;;;;2.92;0.38;;;;;;;11.92;100.00;100513.84;5026992;28;20041;-63
2023/01/04 04:36:54;;;;;;;2.38;0.43;;;;;;;11.98;100.00;100513.06;5023016;28;20072;-57
2023/01/04 04:39:20;;;;;;;0.68;0.10;;;;;;;12.04;100.00;100511.44;5031281;28;20053;-57
2023/01/04 04:41:45;;;;;;;1.40;0.10;;;;;;;12.03;100.00;100527.56;5022381;28;20091;-55
2023/01/04 04:44:19;;;;;;;2.83;0.90;;;;;;;11.91;100.00;100514.88;5021399;28;20560;-54
2023/01/04 04:46:45;;;;;;;2.78;0.00;;;;;;;11.99;100.00;100535.13;5029001;28;20087;-58
2023/01/04 04:49:12;;;;;;;2.03;0.82;;;;;;;11.99;100.00;100527.16;5025018;28;20372;-60
2023/01/04 04:51:39;;;;;;;0.43;0.17;;;;;;;11.99;100.00;100533.28;5028981;28;20031;-55
2023/01/04 04:54:06;;;;;;;4.55;0.30;;;;;;;12.05;100.00;100533.50;5031365;28;20109;-53
2023/01/04 04:56:32;;;;;;;3.35;0.13;;;;;;;12.06;100.00;100537.81;5031211;28;20120;-60
2023/01/04 04:58:57;;;;;;;1.25;0.30;;;;;;;11.99;100.00;100525.31;5027211;28;20048;-55
2023/01/04 05:01:22;;;;;;;1.58;0.70;;;;;;;12.13;100.00;100539.50;5034783;28;20099;-54
2023/01/04 05:03:48;;;;;;;2.72;1.02;;;;;;;12.13;100.00;100533.31;5028694;28;20459;-54
2023/01/04 05:06:13;;;;;;;2.38;0.10;;;;;;;12.13;100.00;100533.31;5035193;28;20029;-53
2023/01/04 05:08:38;;;;;;;6.00;0.20;;;;;;;12.08;100.00;100536.59;5033187;28;20475;-53
2023/01/04 05:11:06;;;;;;;4.00;1.20;;;;;;;12.08;100.00;100541.91;5032383;28;20026;-55
2023/01/04 05:13:31;;;;;;;6.25;0.45;;;;;;;12.08;100.00;100543.75;5023886;28;20455;-55
2023/01/04 05:15:56;;;;;;;2.85;0.43;;;;;;;12.08;100.00;100538.41;5026444;28;20124;-55
2023/01/04 05:18:22;;;;;;;3.08;0.80;;;;;;;12.31;100.00;100530.91;5028503;28;20056;-55
2023/01/04 05:20:47;;;;;;;7.18;0.82;;;;;;;12.32;100.00;100527.25;5030564;28;20459;-54
2023/01/04 05:23:14;;;;;;;1.15;0.70;;;;;;;12.28;100.00;100528.66;5027855;28;20025;-56
2023/01/04 05:25:40;;;;;;;1.45;0.20;;;;;;;12.24;100.00;100524.78;5029654;28;20026;-51
2023/01/04 05:28:08;;;;;;;2.05;0.05;;;;;;;12.29;100.00;100525.00;5037663;28;20040;-55
2023/01/04 05:30:54;;;;;;;7.80;1.15;;;;;;;12.25;100.00;100520.28;5027358;28;20033;-53
2023/01/04 05:33:30;;;;;;;2.30;0.90;;;;;;;12.23;100.00;100515.16;5033283;28;20028;-57
2023/01/04 05:35:58;;;;;;;2.40;0.55;;;;;;;12.25;100.00;100507.00;5038089;28;20478;-53
2023/01/04 05:38:24;;;;;;;4.30;0.50;;;;;;;12.20;100.00;100507.59;5034669;28;20029;-57
2023/01/04 05:40:50;;;;;;;6.38;0.32;;;;;;;12.10;100.00;100518.59;5033989;28;20037;-64
2023/01/04 05:43:17;;;;;;;3.25;1.13;;;;;;;12.10;100.00;100520.44;5034336;28;20364;-55
2023/01/04 05:45:46;;;;;;;3.13;1.35;;;;;;;12.12;100.00;100526.38;5037931;28;20034;-52
2023/01/04 05:48:11;;;;;;;4.95;1.23;;;;;;;12.34;100.00;100517.25;5036582;28;20351;-56
2023/01/04 05:50:37;;;;;;;6.93;1.08;;;;;;;12.34;100.00;100519.06;5037121;28;20087;-57
2023/01/04 05:53:02;;;;;;;7.50;0.60;;;;;;;12.33;100.00;100525.41;5031837;28;20475;-57
2023/01/04 05:55:28;;;;;;;2.58;0.10;;;;;;;12.23;100.00;100523.94;5030504;28;20037;-56
2023/01/04 05:57:53;;;;;;;6.32;1.75;;;;;;;12.31;100.00;100520.28;5029581;28;20158;-56
2023/01/04 06:00:19;;;;;;;3.88;0.55;;;;;;;12.36;100.00;100512.53;5031283;28;20050;-56
2023/01/04 06:02:45;;;;;;;10.77;1.83;;;;;;;12.36;100.00;100517.03;5032487;28;20071;-57
2023/01/04 06:05:11;;;;;;;5.40;0.60;;;;;;;12.47;100.00;100524.44;5025565;28;20033;-55
2023/01/04 06:07:38;;;;;;;1.90;0.65;;;;;;;12.57;100.00;100505.41;5032293;28;20536;-56
2023/01/04 06:10:06;;;;;;;6.82;0.57;;;;;;;12.38;100.00;100507.03;5026182;28;20029;-53
2023/01/04 06:12:31;;;;;;;7.03;1.38;;;;;;;12.28;100.00;100506.59;5032725;28;20051;-57
2023/01/04 06:14:56;;;;;;;4.00;1.45;;;;;;;12.31;100.00;100514.16;5030466;28;20491;-59
2023/01/04 06:17:22;;;;;;;7.25;2.22;;;;;;;12.29;100.00;100522.34;5028434;28;20026;-53
2023/01/04 06:19:47;;;;;;;3.58;0.28;;;;;;;12.18;100.00;100526.41;5032808;28;20416;-57
2023/01/04 06:22:13;;;;;;;2.95;0.10;;;;;;;12.18;100.00;100537.06;5029846;28;20522;-57
2023/01/04 06:24:38;;;;;;;1.13;0.68;;;;;;;12.25;100.00;100530.91;5038975;28;20043;-55
2023/01/04 06:27:04;;;;;;;2.78;0.40;;;;;;;12.19;100.00;100532.53;5033540;28;20026;-57
2023/01/04 06:29:29;;;;;;;5.35;1.35;;;;;;;12.13;100.00;100523.53;5027443;28;20369;-55
2023/01/04 06:31:54;;;;;;;4.47;0.75;;;;;;;12.15;100.00;100528.63;5034866;28;20033;-57
2023/01/04 06:34:20;;;;;;;5.35;1.00;;;;;;;12.16;100.00;100519.66;5030905;28;20038;-53
2023/01/04 06:36:45;;;;;;;2.00;0.47;;;;;;;12.11;100.00;100533.53;5034881;28;20035;-52
2023/01/04 06:39:11;;;;;;;3.65;1.33;;;;;;;12.05;100.00;100528.19;5032838;28;20547;-56
2023/01/04 06:41:36;;;;;;;2.28;0.35;;;;;;;12.08;100.00;100531.28;5032354;28;20038;-54
2023/01/04 06:44:02;;;;;;;4.18;0.68;;;;;;;12.03;100.00;100540.84;5021619;28;20354;-54
2023/01/04 06:46:27;;;;;;;8.45;0.70;;;;;;;12.11;100.00;100551.34;5030829;28;20052;-56
2023/01/04 06:48:53;;;;;;;3.28;0.57;;;;;;;12.03;100.00;100564.78;5025346;28;20026;-56
2023/01/04 06:51:19;;;;;;;5.97;1.00;;;;;;;11.98;100.00;100558.22;5031589;28;20133;-58
2023/01/04 06:53:45;;;;;;;6.63;0.70;;;;;;;12.05;100.00;100568.06;5033776;28;20061;-57
2023/01/04 06:56:10;;;;;;;3.20;0.60;;;;;;;12.11;100.00;100577.91;5032093;28;20065;-56
2023/01/04 06:58:36;;;;;;;7.28;1.60;;;;;;;12.16;100.00;100591.44;5032325;28;20316;-56
2023/01/04 07:01:02;;;;;;;3.72;0.68;;;;;;;12.04;100.00;100577.88;5021894;28;20052;-54
2023/01/04 07:03:27;;;;;;;2.92;0.85;;;;;;;12.09;100.00;100588.72;5025980;28;20022;-54
2023/01/04 07:05:53;;;;;;;6.32;0.38;;;;;;;12.21;100.00;100589.81;5031879;28;20032;-57
2023/01/04 07:08:18;;;;;;;4.10;2.05;;;;;;;12.27;100.00;100576.75;5031221;28;20078;-53
2023/01/04 07:10:44;;;;;;;6.57;0.25;;;;;;;12.22;100.00;100582.66;5028739;28;20029;-56
2023/01/04 07:13:10;;;;;;;3.50;0.88;;;;;;;12.23;100.00;100632.13;5024194;28;20033;-55
2023/01/04 07:15:35;;;;;;;0.90;0.20;;;;;;;12.19;100.00;100606.97;5021303;28;20163;-59
2023/01/04 07:18:01;;;;;;;2.80;0.93;;;;;;;12.27;100.00;100605.97;5027091;28;20483;-51
2023/01/04 07:20:26;;;;;;;6.13;0.00;;;;;;;12.10;100.00;100603.66;5025454;28;20785;-56
2023/01/04 07:22:52;;;;;;;1.10;0.45;;;;;;;12.21;100.00;100610.25;5025352;28;20046;-54
2023/01/04 07:25:18;;;;;;;2.60;0.30;;;;;;;12.58;100.00;100595.63;5024031;28;21088;-63
2023/01/04 07:27:43;;;;;;;5.22;1.17;;;;;;;12.61;100.00;100575.78;5021999;28;20386;-55
2023/01/04 07:30:09;;;;;;;5.68;0.40;;;;;;;12.36;100.00;100571.03;5025353;28;20037;-56
2023/01/04 07:32:35;;;;;;;5.55;0.65;;;;;;;12.01;100.00;100567.66;5023557;28;20432;-56
2023/01/04 07:35:00;;;;;;;4.80;0.35;;;;;;;11.92;100.00;100564.31;5020500;28;20029;-56
2023/01/04 07:37:26;;;;;;;6.30;0.90;;;;;;;12.15;100.00;100576.47;5025987;28;20038;-54
2023/01/04 07:39:51;;;;;;;5.50;0.98;;;;;;;11.89;100.00;100574.53;5021410;28;20041;-57
2023/01/04 07:42:18;;;;;;;7.18;1.58;;;;;;;11.98;100.00;100568.88;5022869;28;20034;-55
2023/01/04 07:44:44;;;;;;;5.43;1.48;;;;;;;11.95;100.00;100563.94;5012749;28;20031;-56
2023/01/04 07:47:09;;;;;;;2.30;0.73;;;;;;;11.94;100.00;100548.19;5013928;28;20026;-52
2023/01/04 07:49:34;;;;;;;10.32;2.30;;;;;;;11.90;100.00;100570.84;5021132;28;20703;-56
2023/01/04 07:52:00;;;;;;;14.45;2.13;;;;;;;12.10;100.00;100571.75;5032606;28;20103;-53
2023/01/04 07:54:25;;;;;;;9.98;1.88;;;;;;;12.16;100.00;100570.16;5030931;28;20502;-57
2023/01/04 07:56:51;;;;;;;8.88;2.22;;;;;;;12.21;100.00;100562.41;5026183;28;20029;-53
2023/01/04 07:59:18;;;;;;;8.82;1.00;;;;;;;12.20;100.00;100572.19;5029879;28;20040;-54
2023/01/04 08:01:43;;;;;;;11.68;1.90;;;;;;;12.16;100.00;100548.91;5023767;28;20025;-54
2023/01/04 08:04:11;;;;;;;12.00;1.05;;;;;;;12.28;100.00;100559.75;5016320;28;20088;-51
2023/01/04 08:06:37;;;;;;;11.25;1.70;;;;;;;12.37;100.00;100546.09;5015402;28;20108;-50
2023/01/04 08:09:04;;;;;;;10.98;1.55;;;;;;;12.64;100.00;100551.44;5017029;28;20487;-50
2023/01/04 08:11:29;;;;;;;5.63;1.52;;;;;;;12.34;100.00;100540.34;5018937;28;20032;-51
2023/01/04 08:13:55;;;;;;;6.35;1.60;;;;;;;12.46;100.00;100543.25;5023617;28;20397;-51
2023/01/04 08:16:26;;;;;;;9.20;1.67;;;;;;;12.21;100.00;100549.94;5020804;28;20076;-49
2023/01/04 08:18:57;;;;;;;16.50;2.60;;;;;;;12.11;100.00;100556.66;5023043;28;20036;-49
2023/01/04 08:21:24;;;;;;;11.00;3.00;;;;;;;12.19;100.00;100572.41;5030011;28;20037;-64
2023/01/04 08:23:50;;;;;;;14.73;1.90;;;;;;;12.07;100.00;100576.66;5021385;28;20430;-54
2023/01/04 08:26:16;;;;;;;9.38;2.05;;;;;;;12.31;100.00;100568.13;5013043;28;20038;-53
2023/01/04 08:28:42;;;;;;;14.93;1.85;;;;;;;12.38;100.00;100563.66;5024453;28;20108;-53
2023/01/04 08:31:11;;;;;;;8.02;2.20;;;;;;;12.42;100.00;100556.94;5017420;28;20025;-53
2023/01/04 08:33:38;;;;;;;17.27;1.95;;;;;;;12.20;100.00;100566.88;5020681;28;20029;-53
2023/01/04 08:36:18;;;;;;;7.68;1.00;;;;;;;12.16;100.00;100586.13;5022262;28;20030;-51
2023/01/04 08:38:45;;;;;;;11.63;2.03;;;;;;;12.29;100.00;100594.13;5028417;28;20029;-53
2023/01/04 08:41:10;;;;;;;9.77;2.10;;;;;;;12.32;100.00;100582.28;5021383;28;20033;-54
2023/01/04 08:43:35;;;;;;;17.00;4.18;;;;;;;12.36;100.00;100600.28;5028277;28;20024;-50
2023/01/04 08:46:04;;;;;;;18.38;2.22;;;;;;;12.37;100.00;100604.59;5031358;28;20057;-54
2023/01/04 08:48:31;;;;;;;9.32;2.58;;;;;;;12.58;100.00;100597.47;5033716;28;20029;-51
2023/01/04 08:51:09;;;;;;;12.52;2.80;;;;;;;12.34;100.00;100612.13;5022781;28;20405;-51
2023/01/04 08:53:34;;;;;;;15.80;3.25;;;;;;;12.44;100.00;100594.78;5031863;28;20387;-53
2023/01/04 08:56:01;;;;;;;3.67;1.30;;;;;;;12.46;100.00;100601.75;5030132;28;20040;-52
2023/01/04 08:58:28;;;;;;;12.57;1.58;;;;;;;12.42;100.00;100596.00;5035176;28;20033;-52
2023/01/04 09:01:06;;;;;;;4.65;1.42;;;;;;;12.43;100.00;100606.44;5039900;28;20032;-55
2023/01/04 09:03:32;;;;;;;13.30;2.40;;;;;;;12.53;100.00;100610.56;5030178;28;20040;-49
2023/01/04 09:06:14;;;;;;;11.32;1.85;;;;;;;12.50;100.00;100611.78;5020304;28;20050;-51
2023/01/04 09:08:41;;;;;;;14.40;2.47;;;;;;;12.31;100.00;100625.81;5020398;28;20037;-51
2023/01/04 09:11:09;;;;;;;14.85;1.90;;;;;;;12.24;100.00;100636.44;5018776;28;20108;-52
2023/01/04 09:13:36;;;;;;;12.65;2.58;;;;;;;12.53;100.00;100626.53;4998298;28;20063;-51
2023/01/04 09:16:03;;;;;;;13.20;2.53;;;;;;;12.51;100.00;100628.56;5014302;28;20041;-51
2023/01/04 09:18:29;;;;;;;13.48;2.22;;;;;;;12.25;100.00;100626.63;5016690;28;20091;-50
2023/01/04 09:20:55;;;;;;;13.52;1.80;;;;;;;12.50;100.00;100630.41;5018335;28;20030;-52
2023/01/04 09:23:21;;;;;;;8.25;1.40;;;;;;;12.56;100.00;100629.59;5026326;28;20134;-52
2023/01/04 09:25:46;;;;;;;14.35;1.58;;;;;;;12.42;100.00;100620.75;5015898;28;20061;-48
2023/01/04 09:28:12;;;;;;;6.97;1.58;;;;;;;12.31;100.00;100618.66;5024818;28;20507;-50
2023/01/04 09:30:37;;;;;;;6.45;1.73;;;;;;;12.22;100.00;100625.19;5028463;28;20119;-50
2023/01/04 09:33:02;;;;;;;18.15;3.88;;;;;;;12.06;100.00;100623.69;5033101;28;20166;-51
2023/01/04 09:35:28;;;;;;;10.68;2.08;;;;;;;12.26;100.00;100629.06;5027476;28;20437;-50
2023/01/04 09:37:54;;;;;;;10.43;1.58;;;;;;;12.31;100.00;100623.16;5029953;28;20025;-50
2023/01/04 09:40:26;;;;;;;6.72;1.50;;;;;;;12.24;100.00;100628.47;5024467;28;20152;-49
2023/01/04 09:42:52;;;;;;;3.72;0.82;;;;;;;12.35;100.00;100627.88;5026356;28;20025;-52
2023/01/04 09:45:21;;;;;;;13.15;2.60;;;;;;;12.11;100.00;100623.09;5031760;28;20050;-52
2023/01/04 09:47:53;;;;;;;11.20;1.63;;;;;;;12.09;100.00;100633.09;5033755;28;20099;-51
2023/01/04 09:51:00;;;;;;;5.60;1.00;;;;;;;12.25;100.00;100634.59;5027775;28;20136;-63
2023/01/04 09:53:45;;;;;;;1.98;1.02;;;;;;;12.15;100.00;100634.97;5031709;28;20051;-51
2023/01/04 09:56:31;;;;;;;12.77;2.30;;;;;;;12.22;100.00;100633.97;5024512;28;20063;-52
2023/01/04 09:58:58;;;;;;;12.98;1.55;;;;;;;12.13;100.00;100639.66;5027215;28;20454;-54
2023/01/04 10:01:29;;;;;;;11.35;2.05;;;;;;;12.22;100.00;100643.78;5031861;28;20113;-52
2023/01/04 10:04:05;;;;;;;20.20;2.73;;;;;;;12.31;100.00;100633.78;5025294;28;20567;-53
2023/01/04 10:06:33;;;;;;;12.13;1.98;;;;;;;12.50;100.00;100637.56;5032544;28;20518;-49
2023/01/04 10:09:03;;;;;;;7.68;2.63;;;;;;;12.50;100.00;100629.59;5023462;28;20104;-56
2023/01/04 10:11:55;;;;;;;8.23;1.70;;;;;;;12.42;100.00;100641.22;5015481;28;20053;-51
2023/01/04 10:14:26;;;;;;;;;;;;;;;12.46;100.00;100641.63;5019563;28;20046;-52
2023/01/04 10:17:09;;;;;;;9.93;2.00;;;;;;;12.50;100.00;100634.91;5021891;28;20020;-56
2023/01/04 10:19:46;;;;;;;15.27;2.42;;;;;;;12.47;100.00;100629.97;5026481;28;20021;-53
2023/01/04 10:22:23;;;;;;;17.38;3.30;;;;;;;12.25;100.00;100627.44;5019818;28;20040;-54
2023/01/04 10:25:07;;;;;;;15.82;2.25;;;;;;;12.35;100.00;100627.06;5017349;28;20029;-55
2023/01/04 10:27:41;;;;;;;10.82;2.58;;;;;;;12.45;100.00;100630.19;5021943;28;20052;-51
2023/01/04 10:30:20;;;;;;;7.70;1.52;;;;;;;12.87;100.00;100629.03;5021188;28;20022;-51
2023/01/04 10:33:01;;;;;;;16.25;2.97;;;;;;;12.43;100.00;100630.38;5017914;28;20407;-52
2023/01/04 10:35:26;;;;;;;16.40;1.98;;;;;;;12.34;100.00;100639.56;5020365;28;20037;-51
2023/01/04 10:37:57;;;;;;;23.85;4.20;;;;;;;12.46;100.00;100636.31;5014182;28;20508;-52
2023/01/04 10:40:25;;;;;;;12.55;1.63;;;;;;;12.38;100.00;100630.13;5020438;28;20446;-51
2023/01/04 10:43:06;;;;;;;7.85;2.03;;;;;;;12.58;100.00;100630.22;5021721;28;20426;-50
2023/01/04 10:45:56;;;;;;;13.48;3.38;;;;;;;12.46;100.00;100628.34;5024124;28;20048;-51
2023/01/04 10:48:43;;;;;;;10.05;2.17;;;;;;;12.38;100.00;100624.81;5016787;28;20041;-51
2023/01/04 10:51:12;;;;;;;17.20;1.83;;;;;;;12.42;100.00;100638.56;5026194;28;20069;-52
2023/01/04 10:53:45;;;;;;;15.70;2.17;;;;;;;12.33;100.00;100635.22;5024756;28;20073;-51
2023/01/04 10:56:28;;;;;;;12.95;2.25;;;;;;;12.31;100.00;100637.25;5025521;28;20052;-55
2023/01/04 10:59:12;;;;;;;11.27;1.92;;;;;;;12.37;100.00;100639.16;5035168;28;20036;-50
2023/01/04 11:01:59;;;;;;;14.27;2.47;;;;;;;12.46;100.00;100649.59;5024592;28;20474;-52
2023/01/04 11:04:32;;;;;;;10.07;1.58;;;;;;;12.52;100.00;100635.50;5015195;28;20047;-57
2023/01/04 11:07:09;;;;;;;14.70;4.20;;;;;;;12.69;100.00;100644.78;5022696;28;20071;-54
2023/01/04 11:09:43;;;;;;;18.70;4.57;;;;;;;12.65;100.00;100632.91;5018716;28;20168;-51
2023/01/04 11:12:11;;;;;;;13.40;2.28;;;;;;;12.62;100.00;100634.13;5019502;28;20033;-51
2023/01/04 11:14:37;;;;;;;11.20;2.60;;;;;;;12.67;100.00;100630.84;5024714;28;20026;-50
2023/01/04 11:17:06;;;;;;;10.80;2.78;;;;;;;12.75;100.00;100632.50;5020862;28;20352;-53
2023/01/04 11:19:33;;;;;;;9.35;3.35;;;;;;;12.78;100.00;100637.44;5021622;28;20034;-54
2023/01/04 11:22:31;;;;;;;10.50;2.83;;;;;;;12.97;100.00;100633.16;5019674;28;20080;-52
2023/01/04 11:25:01;;;;;;;13.20;3.22;;;;;;;12.99;100.00;100629.28;5021504;28;20149;-49
2023/01/04 11:27:34;;;;;;;17.13;3.15;;;;;;;12.84;100.00;100637.44;5020906;28;20022;-52
2023/01/04 11:30:20;;;;;;;11.00;3.05;;;;;;;12.86;100.00;100635.41;5020275;28;20045;-56
2023/01/04 11:33:01;;;;;;;14.52;3.50;;;;;;;12.76;100.00;100616.34;5033348;28;20051;-49
2023/01/04 11:35:42;;;;;;;11.25;3.20;;;;;;;12.69;100.00;100628.00;5021828;28;20099;-52
2023/01/04 11:38:15;;;;;;;17.20;3.83;;;;;;;12.74;100.00;100634.34;5013970;28;20079;-54
2023/01/04 11:40:41;;;;;;;18.40;3.47;;;;;;;12.81;100.00;100621.88;5015316;28;20026;-52
2023/01/04 11:43:18;;;;;;;20.23;5.85;;;;;;;12.91;100.00;100621.50;5032108;28;20040;-51
2023/01/04 11:45:52;;;;;;;21.10;2.70;;;;;;;12.94;100.00;100615.75;5032314;28;20036;-50
2023/01/04 11:48:18;;;;;;;10.57;1.17;;;;;;;13.04;100.00;100631.34;5028356;28;20045;-54
2023/01/04 11:50:47;;;;;;;10.88;2.40;;;;;;;13.07;100.00;100620.28;5017587;28;20045;-53
2023/01/04 11:53:28;;;;;;;20.52;4.00;;;;;;;13.09;100.00;100618.25;5036744;28;20051;-67
2023/01/04 11:56:23;;;;;;;11.90;2.50;;;;;;;13.12;100.00;100620.47;5031117;28;20095;-51
2023/01/04 11:59:07;;;;;;;11.73;2.97;;;;;;;13.24;100.00;100602.03;5020732;28;20033;-52
2023/01/04 12:01:38;;;;;;;13.35;2.53;;;;;;;13.13;100.00;100631.94;5018133;28;20044;-51
2023/01/04 12:04:12;;;;;;;11.57;2.42;;;;;;;13.01;100.00;100624.56;5023601;28;20112;-52
2023/01/04 12:06:49;;;;;;;12.80;2.17;;;;;;;13.16;100.00;100632.34;5021550;28;20482;-52